»·PEaware :: 3A-MCH EIDW-EGCC

3A-MCH :: EIDW-EGCC

FLIGHT INFORMATION

Flight Status: Arrived
Operator: Privately registered:
Monaco
More flights under this callsign
Pilot: Timothy W. (9658)
Aircraft: ECLIPSE 500
(EA50)
More flights by this aircraft type
Origin: EIDW Dublin Intl
Ireland
Destination: EGCC Manchester
United Kingdom
More flights between these airports :: More routes between these airports
Route: LIFY5M LIFFY Q37 MALUD MIRS2B
File this flight plan on PilotEdge
Remarks:
Altitude:
(Current/Filed)
25,000ft
Speed:
(Current/Filed)
269kts
Departed: 18-Aug-18 01:48 PM
Arrived: 18-Aug-18 02:31 PM
Distance/Time
Traveled:
143nm/0:43
Distance/Time
To Go:
Arrived

Flight Plot

Page will automatically refresh every two minutes.

Flight plan parsing failed; only flown route is shown


Map Options




Map Legend


Flown Route
Filed Route
Departure Airport
Arrival Airport
Navaid (VOR, NDB)
Fix

Horizontal Profiles

Position Reports

Time Latitude Longitude Heading Altitude Ground
Speed
18-Aug-18 13:31 53.430722 -6.238275 148 245ft 0kts
18-Aug-18 13:32 53.430722 -6.238275 148 245ft 0kts
18-Aug-18 13:33 53.430722 -6.238275 148 245ft 0kts
18-Aug-18 13:34 53.430722 -6.238275 148 245ft 0kts
18-Aug-18 13:35 53.430722 -6.238275 148 245ft 0kts
18-Aug-18 13:36 53.430722 -6.238275 148 245ft 0kts
18-Aug-18 13:37 53.430722 -6.238275 148 245ft 0kts
18-Aug-18 13:38 53.430722 -6.238275 148 245ft 0kts
18-Aug-18 13:39 53.430722 -6.238275 148 245ft 0kts
18-Aug-18 13:40 53.430718 -6.238270 148 245ft 0kts
18-Aug-18 13:41 53.431134 -6.238695 162 245ft 2kts
18-Aug-18 13:42 53.431421 -6.238302 234 245ft 0kts
18-Aug-18 13:43 53.431421 -6.238302 234 245ft 0kts
18-Aug-18 13:44 53.431182 -6.238998 262 245ft 8kts
18-Aug-18 13:45 53.431537 -6.245140 277 245ft 14kts
18-Aug-18 13:46 53.432713 -6.251471 293 245ft 14kts
18-Aug-18 13:47 53.434616 -6.257506 337 245ft 14kts
18-Aug-18 13:48 53.435579 -6.260964 158 245ft 27kts
18-Aug-18 13:49 53.407470 -6.237962 151 1287ft 150kts
18-Aug-18 13:50 53.371197 -6.203876 155 3770ft 150kts
18-Aug-18 13:51 53.354398 -6.147565 76 5932ft 177kts
18-Aug-18 13:52 53.369821 -6.066891 76 7934ft 189kts
18-Aug-18 13:53 53.385544 -5.980819 79 9803ft 199kts
18-Aug-18 13:54 53.401624 -5.888561 80 11538ft 212kts
18-Aug-18 13:55 53.418217 -5.792106 80 13198ft 219kts
18-Aug-18 13:56 53.437112 -5.693067 73 14784ft 227kts
18-Aug-18 13:57 53.459527 -5.593060 73 16274ft 232kts
18-Aug-18 13:58 53.481790 -5.490016 80 17675ft 236kts
18-Aug-18 13:59 53.497007 -5.382210 81 19003ft 241kts
18-Aug-18 14:00 53.512397 -5.273392 80 20253ft 245kts
18-Aug-18 14:01 53.527903 -5.159137 93 21458ft 246kts
18-Aug-18 14:02 53.524657 -5.044468 99 22561ft 249kts
18-Aug-18 14:03 53.520888 -4.927557 97 23630ft 253kts
18-Aug-18 14:04 53.517383 -4.809118 97 24622ft 256kts
18-Aug-18 14:05 53.513426 -4.685781 97 25078ft 282kts
18-Aug-18 14:06 53.509538 -4.571723 97 25078ft 315kts
18-Aug-18 14:07 53.503174 -4.392555 96 25075ft 334kts
18-Aug-18 14:08 53.497396 -4.236937 96 25084ft 337kts
18-Aug-18 14:09 53.492409 -4.106855 96 25099ft 337kts
18-Aug-18 14:10 53.479207 -3.926987 113 25110ft 331kts
18-Aug-18 14:11 53.454661 -3.806907 114 25100ft 330kts
18-Aug-18 14:12 53.424762 -3.661742 114 25101ft 331kts
18-Aug-18 14:13 53.408137 -3.483677 97 24652ft 338kts
18-Aug-18 14:14 53.402331 -3.356644 97 23132ft 327kts
18-Aug-18 14:15 53.395876 -3.216856 98 21269ft 316kts
18-Aug-18 14:16 53.411771 -3.079498 59 19332ft 311kts
18-Aug-18 14:17 53.453370 -2.957021 58 17571ft 300kts
18-Aug-18 14:18 53.494483 -2.838581 58 15780ft 290kts
18-Aug-18 14:19 53.534220 -2.723697 63 13982ft 282kts
18-Aug-18 14:20 53.540351 -2.596736 90 12197ft 265kts
18-Aug-18 14:21 53.542746 -2.477184 90 10417ft 253kts
18-Aug-18 14:22 53.544824 -2.362483 91 8642ft 243kts
18-Aug-18 14:23 53.546697 -2.252495 92 6878ft 234kts
18-Aug-18 14:24 53.548376 -2.146967 91 5115ft 225kts
18-Aug-18 14:25 53.531056 -2.059675 142 3629ft 198kts
18-Aug-18 14:26 53.489449 -2.010300 183 3507ft 177kts
18-Aug-18 14:27 53.452260 -2.064502 226 3394ft 183kts
18-Aug-18 14:28 53.420575 -2.127814 229 2465ft 180kts
18-Aug-18 14:29 53.389976 -2.190906 229 1534ft 144kts
18-Aug-18 14:30 53.369815 -2.232714 230 928ft 108kts
18-Aug-18 14:31 53.351408 -2.271264 225 358ft 106kts
18-Aug-18 14:32 53.338639 -2.296814 231 259ft 24kts
18-Aug-18 14:33 53.338571 -2.297082 53 259ft 20kts
18-Aug-18 14:34 53.344246 -2.286059 33 259ft 30kts
18-Aug-18 14:35 53.348110 -2.281906 52 259ft 18kts
18-Aug-18 14:36 53.349675 -2.279828 320 259ft 0kts
18-Aug-18 14:37 53.349675 -2.279828 320 259ft 0kts
18-Aug-18 14:38 53.350583 -2.281015 321 259ft 17kts
18-Aug-18 14:39 53.354896 -2.281370 2 259ft 14kts
18-Aug-18 14:40 53.355773 -2.281583 145 259ft 1kts
18-Aug-18 14:41 53.355728 -2.281493 139 259ft 0kts
18-Aug-18 14:42 53.355728 -2.281493 139 259ft 0kts
18-Aug-18 14:43 53.355728 -2.281493 139 259ft 0kts
18-Aug-18 14:44 53.355728 -2.281493 139 259ft 0kts
18-Aug-18 14:45 53.355728 -2.281493 139 259ft 0kts
18-Aug-18 14:46 53.355728 -2.281493 139 259ft 0kts

Navigation Log

Ident Type
Flight plan parsing failed, navigation log unavailable